createdAt,value
2022-09-26T00:00:47.931Z,10.42
2022-09-26T00:03:14.998Z,10.61
2022-09-26T00:05:41.613Z,10.16
2022-09-26T00:08:08.193Z,10.52
2022-09-26T00:10:34.964Z,10.39
2022-09-26T00:13:01.617Z,9.96
2022-09-26T00:15:28.243Z,10.51
2022-09-26T00:17:54.831Z,10.28
2022-09-26T00:20:21.390Z,9.89
2022-09-26T00:22:47.977Z,9.56
2022-09-26T00:25:14.522Z,10.47
2022-09-26T00:27:41.082Z,10.28
2022-09-26T00:30:08.128Z,10.20
2022-09-26T00:32:34.740Z,10.09
2022-09-26T00:35:01.293Z,9.94
2022-09-26T00:37:27.947Z,9.61
2022-09-26T00:39:54.524Z,9.96
2022-09-26T00:42:23.094Z,9.93
2022-09-26T00:44:55.280Z,9.96
2022-09-26T00:47:25.444Z,9.81
2022-09-26T00:49:58.548Z,9.68
2022-09-26T00:52:29.633Z,10.07
2022-09-26T00:55:01.353Z,10.00
2022-09-26T00:57:35.681Z,10.11
2022-09-26T01:00:09.371Z,9.97
2022-09-26T01:02:36.608Z,9.50
2022-09-26T01:05:05.763Z,10.04
2022-09-26T01:07:34.381Z,9.92
2022-09-26T01:10:05.076Z,9.59
2022-09-26T01:12:32.732Z,9.34
2022-09-26T01:14:59.438Z,9.94
2022-09-26T01:17:26.793Z,9.53
2022-09-26T01:20:11.678Z,10.07
2022-09-26T01:22:56.959Z,9.93
2022-09-26T01:25:55.101Z,9.58
2022-09-26T01:29:12.816Z,9.76
2022-09-26T01:32:27.334Z,9.79
2022-09-26T01:35:18.900Z,9.70
2022-09-26T01:38:07.300Z,9.68
2022-09-26T01:40:33.846Z,9.67
2022-09-26T01:43:20.148Z,9.10
2022-09-26T01:46:00.719Z,9.81
2022-09-26T01:48:58.875Z,9.71
2022-09-26T01:51:36.027Z,9.63
2022-09-26T01:54:25.482Z,9.61
2022-09-26T01:56:57.468Z,9.55
2022-09-26T01:59:40.987Z,9.49
2022-09-26T02:02:19.241Z,9.55
2022-09-26T02:04:50.295Z,9.29
2022-09-26T02:07:23.379Z,9.04
2022-09-26T02:10:05.568Z,8.66
2022-09-26T02:12:40.087Z,8.89
2022-09-26T02:15:15.103Z,8.82
2022-09-26T02:17:53.179Z,8.69
2022-09-26T02:20:29.566Z,8.75
2022-09-26T02:23:03.916Z,8.52
2022-09-26T02:25:31.542Z,8.62
2022-09-26T02:27:58.305Z,8.77
2022-09-26T02:30:24.979Z,8.89
2022-09-26T02:32:51.579Z,8.37
2022-09-26T02:35:37.570Z,8.89
2022-09-26T02:38:06.365Z,8.93
2022-09-26T02:40:44.918Z,9.01
2022-09-26T02:43:40.605Z,8.99
2022-09-26T02:46:49.180Z,9.05
2022-09-26T02:49:45.509Z,8.98
2022-09-26T02:52:37.200Z,9.06
2022-09-26T02:55:10.544Z,8.76
2022-09-26T02:57:54.876Z,8.97
2022-09-26T03:00:26.076Z,9.06
2022-09-26T03:03:12.702Z,9.12
2022-09-26T03:05:43.183Z,9.02
2022-09-26T03:08:16.315Z,9.17
2022-09-26T03:10:44.682Z,9.05
2022-09-26T03:13:13.350Z,8.98
2022-09-26T03:15:45.234Z,8.95
2022-09-26T03:18:19.279Z,8.90
2022-09-26T03:20:46.806Z,8.84
2022-09-26T03:23:13.493Z,8.23
2022-09-26T03:25:40.938Z,8.63
2022-09-26T03:28:07.575Z,8.53
2022-09-26T03:30:34.773Z,8.99
2022-09-26T03:33:03.268Z,8.90
2022-09-26T03:35:30.323Z,8.45
2022-09-26T03:37:56.880Z,8.66
2022-09-26T03:40:23.513Z,8.88
2022-09-26T03:42:50.250Z,8.82
2022-09-26T03:45:17.370Z,8.19
2022-09-26T03:47:43.989Z,8.27
2022-09-26T03:50:10.820Z,8.50
2022-09-26T03:52:37.391Z,8.43
2022-09-26T03:55:04.913Z,8.36
2022-09-26T03:57:31.527Z,8.43
2022-09-26T03:59:58.102Z,7.87
2022-09-26T04:02:25.174Z,8.73
2022-09-26T04:04:51.945Z,6.97
2022-09-26T04:07:18.565Z,8.76
2022-09-26T04:09:45.168Z,8.45
2022-09-26T04:12:11.802Z,8.52
2022-09-26T04:14:38.398Z,8.47
2022-09-26T04:17:05.009Z,8.60
2022-09-26T04:19:31.851Z,8.53
2022-09-26T04:21:59.042Z,8.67
2022-09-26T04:24:25.685Z,8.76
2022-09-26T04:26:52.322Z,8.97
2022-09-26T04:29:18.955Z,9.01
2022-09-26T04:31:45.894Z,9.10
2022-09-26T04:34:12.882Z,9.11
2022-09-26T04:36:39.537Z,9.08
2022-09-26T04:39:06.571Z,8.67
2022-09-26T04:41:33.641Z,9.16
2022-09-26T04:44:01.088Z,9.18
2022-09-26T04:46:31.001Z,9.29
2022-09-26T04:48:59.788Z,9.29
2022-09-26T04:51:27.979Z,8.32
2022-09-26T04:53:54.984Z,8.84
2022-09-26T04:56:23.754Z,9.03
2022-09-26T04:58:50.995Z,9.24
2022-09-26T05:01:20.105Z,9.39
2022-09-26T05:03:47.362Z,9.33
2022-09-26T05:06:15.216Z,8.31
2022-09-26T05:08:44.688Z,8.70
2022-09-26T05:11:11.380Z,9.12
2022-09-26T05:13:38.888Z,8.72
2022-09-26T05:16:08.906Z,9.37
2022-09-26T05:18:36.338Z,9.14
2022-09-26T05:21:03.817Z,9.57
2022-09-26T05:24:08.796Z,9.26
2022-09-26T05:26:44.492Z,9.15
2022-09-26T05:29:12.138Z,9.55
2022-09-26T05:31:40.083Z,10.03
2022-09-26T05:34:09.593Z,10.17
2022-09-26T05:36:37.000Z,10.29
2022-09-26T05:39:05.303Z,9.94
2022-09-26T05:41:33.619Z,9.04
2022-09-26T05:44:00.307Z,10.33
2022-09-26T05:46:31.880Z,10.50
2022-09-26T05:48:58.531Z,8.69
2022-09-26T05:51:25.365Z,10.36
2022-09-26T05:53:52.037Z,10.87
2022-09-26T05:56:19.812Z,10.91
2022-09-26T05:58:46.791Z,11.66
2022-09-26T06:01:18.408Z,12.36
2022-09-26T06:03:46.723Z,12.66
2022-09-26T06:06:22.142Z,12.79
2022-09-26T06:08:49.220Z,12.93
2022-09-26T06:11:19.128Z,12.73
2022-09-26T06:13:46.493Z,12.82
2022-09-26T06:16:18.364Z,11.52
2022-09-26T06:18:46.968Z,12.98
2022-09-26T06:21:16.089Z,14.04
2022-09-26T06:23:42.723Z,13.93
2022-09-26T06:26:14.935Z,14.43
2022-09-26T06:28:41.584Z,14.54
2022-09-26T06:31:13.740Z,14.44
2022-09-26T06:33:41.246Z,13.84
2022-09-26T06:36:10.510Z,14.26
2022-09-26T06:38:38.366Z,15.23
2022-09-26T06:41:07.446Z,15.00
2022-09-26T06:43:34.360Z,14.28
2022-09-26T06:46:01.025Z,15.85
2022-09-26T06:48:27.779Z,15.63
2022-09-26T06:50:57.094Z,15.67
2022-09-26T06:53:24.010Z,16.83
2022-09-26T06:55:50.636Z,16.85
2022-09-26T06:58:17.538Z,17.27
2022-09-26T07:00:44.544Z,17.17
2022-09-26T07:03:13.538Z,17.25
2022-09-26T07:05:40.108Z,17.35
2022-09-26T07:08:07.043Z,17.29
2022-09-26T07:10:37.663Z,17.86
2022-09-26T07:13:07.967Z,17.54
2022-09-26T07:15:36.159Z,18.24
2022-09-26T07:18:06.497Z,18.01
2022-09-26T07:20:36.297Z,17.47
2022-09-26T07:23:10.651Z,18.99
2022-09-26T07:25:39.655Z,18.94
2022-09-26T07:28:07.407Z,18.54
2022-09-26T07:30:34.634Z,18.99
2022-09-26T07:33:03.767Z,19.54
2022-09-26T07:35:35.505Z,18.99
2022-09-26T07:38:02.603Z,19.80
2022-09-26T07:40:29.301Z,20.01
2022-09-26T07:43:18.595Z,20.31
2022-09-26T07:46:04.885Z,20.30
2022-09-26T07:48:50.254Z,20.72
2022-09-26T07:51:16.860Z,20.81
2022-09-26T07:53:43.424Z,20.83
2022-09-26T07:56:12.746Z,20.91
2022-09-26T07:58:43.315Z,21.16
2022-09-26T08:01:12.481Z,20.47
2022-09-26T08:03:40.302Z,21.31
2022-09-26T08:06:07.237Z,20.95
2022-09-26T08:08:34.234Z,21.63
2022-09-26T08:11:03.894Z,21.76
2022-09-26T08:13:32.579Z,21.37
2022-09-26T08:16:06.231Z,21.48
2022-09-26T08:18:33.229Z,21.27
2022-09-26T08:21:02.013Z,21.13
2022-09-26T08:23:29.426Z,21.60
2022-09-26T08:26:00.409Z,21.92
2022-09-26T08:28:28.815Z,21.54
2022-09-26T08:31:00.377Z,21.88
2022-09-26T08:33:27.232Z,21.64
2022-09-26T08:35:53.799Z,21.54
2022-09-26T08:38:20.530Z,22.74
2022-09-26T08:41:03.731Z,22.99
2022-09-26T08:43:45.804Z,22.96
2022-09-26T08:46:45.374Z,23.13
2022-09-26T08:49:48.225Z,22.99
2022-09-26T08:52:37.728Z,23.07
2022-09-26T08:55:18.055Z,22.68
2022-09-26T08:57:55.496Z,22.26
2022-09-26T09:00:24.929Z,22.93
2022-09-26T09:03:10.589Z,23.08
2022-09-26T09:05:58.767Z,23.03
2022-09-26T09:08:38.820Z,22.73
2022-09-26T09:11:33.821Z,22.64
2022-09-26T09:14:03.513Z,22.41
2022-09-26T09:16:51.660Z,22.60
2022-09-26T09:19:23.708Z,22.82
2022-09-26T09:22:05.916Z,23.14
2022-09-26T09:24:41.093Z,23.49
2022-09-26T09:30:43.653Z,23.47
2022-09-26T09:33:15.795Z,23.96
2022-09-26T09:36:08.828Z,24.17
2022-09-26T09:38:39.113Z,24.28
2022-09-26T09:41:19.733Z,24.32
2022-09-26T09:44:18.858Z,24.50
2022-09-26T09:46:45.473Z,24.59
2022-09-26T09:49:19.631Z,24.68
2022-09-26T09:51:54.672Z,24.60
2022-09-26T09:54:30.421Z,24.46
2022-09-26T09:57:26.265Z,24.26
2022-09-26T10:00:10.469Z,24.53
2022-09-26T10:03:01.539Z,24.46
2022-09-26T10:05:46.762Z,24.87
2022-09-26T10:08:16.888Z,25.06
2022-09-26T10:11:00.980Z,25.04
2022-09-26T10:13:31.572Z,25.47
2022-09-26T10:16:04.796Z,25.64
2022-09-26T10:18:31.725Z,24.83
2022-09-26T10:21:02.622Z,25.73
2022-09-26T10:23:36.808Z,25.84
2022-09-26T10:26:07.377Z,24.30
2022-09-26T10:28:45.288Z,26.01
2022-09-26T10:31:21.983Z,26.07
2022-09-26T10:33:58.801Z,25.95
2022-09-26T10:36:31.430Z,26.35
2022-09-26T10:39:19.016Z,26.28
2022-09-26T10:41:46.893Z,25.75
2022-09-26T10:44:25.983Z,25.62
2022-09-26T10:46:57.560Z,25.26
2022-09-26T10:49:34.915Z,25.10
2022-09-26T10:52:18.653Z,25.30
2022-09-26T10:55:09.806Z,25.83
2022-09-26T10:57:39.916Z,25.77
2022-09-26T11:00:08.589Z,24.53
2022-09-26T11:02:38.214Z,25.04
2022-09-26T11:05:24.524Z,25.83
2022-09-26T11:07:52.520Z,26.26
2022-09-26T11:10:34.321Z,25.70
2022-09-26T11:13:05.244Z,25.42
2022-09-26T11:15:31.968Z,25.90
2022-09-26T11:17:58.947Z,25.90
2022-09-26T11:20:55.421Z,26.42
2022-09-26T11:23:34.798Z,25.59
2022-09-26T11:26:22.177Z,24.88
2022-09-26T11:29:02.091Z,23.39
2022-09-26T11:31:34.888Z,26.70
2022-09-26T11:34:04.531Z,26.89
2022-09-26T11:36:49.820Z,27.15
2022-09-26T11:39:30.987Z,26.37
2022-09-26T11:42:16.023Z,26.32
2022-09-26T11:44:56.676Z,26.17
2022-09-26T11:47:41.459Z,26.34
2022-09-26T11:50:26.258Z,26.14
2022-09-26T11:53:09.493Z,26.05
2022-09-26T11:56:01.560Z,26.18
2022-09-26T11:58:59.376Z,25.73
2022-09-26T12:01:42.562Z,25.81
2022-09-26T12:04:16.174Z,25.01
2022-09-26T12:06:45.947Z,25.29
2022-09-26T12:09:35.831Z,24.43
2022-09-26T12:12:39.677Z,25.58
2022-09-26T12:15:23.557Z,25.95
2022-09-26T12:18:02.062Z,26.03
2022-09-26T12:20:53.164Z,25.69
2022-09-26T12:23:38.580Z,25.70
2022-09-26T12:26:23.593Z,25.55
2022-09-26T12:28:59.181Z,25.54
2022-09-26T12:31:44.823Z,26.09
2022-09-26T12:34:41.596Z,26.47
2022-09-26T12:37:33.720Z,26.66
2022-09-26T12:40:18.421Z,26.20
2022-09-26T12:42:54.071Z,26.50
2022-09-26T12:45:43.584Z,26.86
2022-09-26T12:48:39.181Z,27.21
2022-09-26T12:51:33.411Z,27.29
2022-09-26T12:54:15.629Z,27.20
2022-09-26T12:56:54.750Z,27.00
2022-09-26T12:59:27.377Z,27.00
2022-09-26T13:02:10.923Z,27.56
2022-09-26T13:04:46.989Z,27.45
2022-09-26T13:07:41.566Z,27.16
2022-09-26T13:10:31.820Z,26.74
2022-09-26T13:13:33.408Z,26.29
2022-09-26T13:16:18.687Z,26.52
2022-09-26T13:18:49.942Z,26.75
2022-09-26T13:21:21.548Z,26.65
2022-09-26T13:23:55.893Z,26.50
2022-09-26T13:26:42.728Z,26.77
2022-09-26T13:29:18.165Z,27.50
2022-09-26T13:31:55.493Z,27.62
2022-09-26T13:34:29.429Z,27.57
2022-09-26T13:36:59.447Z,27.48
2022-09-26T13:39:52.795Z,27.09
2022-09-26T13:42:39.166Z,27.49
2022-09-26T13:45:22.427Z,26.96
2022-09-26T13:47:56.829Z,28.08
2022-09-26T13:50:38.531Z,28.95
2022-09-26T13:53:40.544Z,28.15
2022-09-26T13:56:32.079Z,28.06
2022-09-26T13:59:23.456Z,28.56
2022-09-26T14:02:19.898Z,29.99
2022-09-26T14:04:48.247Z,30.18
2022-09-26T14:08:02.278Z,27.47
2022-09-26T14:10:37.771Z,26.17
2022-09-26T14:13:18.191Z,26.63
2022-09-26T14:15:50.868Z,26.61
2022-09-26T14:18:38.607Z,26.55
2022-09-26T14:21:12.601Z,26.07
2022-09-26T14:23:47.580Z,26.07
2022-09-26T14:26:21.324Z,26.19
2022-09-26T14:28:52.992Z,25.58
2022-09-26T14:31:25.896Z,26.17
2022-09-26T14:34:10.907Z,26.03
2022-09-26T14:36:38.049Z,25.96
2022-09-26T14:39:05.826Z,25.36
2022-09-26T14:41:34.970Z,25.10
2022-09-26T14:44:04.690Z,25.56
2022-09-26T14:46:35.503Z,25.31
2022-09-26T14:49:05.503Z,25.70
2022-09-26T14:51:41.601Z,25.17
2022-09-26T14:54:39.661Z,25.61
2022-09-26T14:57:08.510Z,25.58
2022-09-26T14:59:35.358Z,25.41
2022-09-26T15:02:17.165Z,25.41
2022-09-26T15:05:06.808Z,25.11
2022-09-26T15:07:46.626Z,25.24
2022-09-26T15:10:13.695Z,25.11
2022-09-26T15:12:48.400Z,24.95
2022-09-26T15:15:18.383Z,24.84
2022-09-26T15:17:53.831Z,24.78
2022-09-26T15:20:22.664Z,24.69
2022-09-26T15:22:50.136Z,24.70
2022-09-26T15:25:25.057Z,24.66
2022-09-26T15:27:55.764Z,24.55
2022-09-26T15:30:27.299Z,24.44
2022-09-26T15:32:58.186Z,24.37
2022-09-26T15:35:27.203Z,24.02
2022-09-26T15:38:12.960Z,23.85
2022-09-26T15:40:39.640Z,23.95
2022-09-26T15:43:09.715Z,24.11
2022-09-26T15:45:46.365Z,23.99
2022-09-26T15:48:19.193Z,23.83
2022-09-26T15:51:11.246Z,23.51
2022-09-26T15:53:50.416Z,23.24
2022-09-26T15:56:47.467Z,23.26
2022-09-26T15:59:20.093Z,22.89
2022-09-26T16:01:52.399Z,22.83
2022-09-26T16:04:30.786Z,22.09
2022-09-26T16:07:00.472Z,21.83
2022-09-26T16:09:33.831Z,21.85
2022-09-26T16:12:20.702Z,21.43
2022-09-26T16:15:16.966Z,21.23
2022-09-26T16:17:52.467Z,20.54
2022-09-26T16:20:19.144Z,21.12
2022-09-26T16:22:51.727Z,21.05
2022-09-26T16:25:18.756Z,20.98
2022-09-26T16:27:59.483Z,20.90
2022-09-26T16:30:27.149Z,20.77
2022-09-26T16:33:18.086Z,20.22
2022-09-26T16:35:47.315Z,20.52
2022-09-26T16:38:29.234Z,19.79
2022-09-26T16:41:09.860Z,20.55
2022-09-26T16:43:38.484Z,20.55
2022-09-26T16:46:14.716Z,20.45
2022-09-26T16:48:42.518Z,20.22
2022-09-26T16:51:14.303Z,20.14
2022-09-26T16:53:45.224Z,19.96
2022-09-26T16:56:19.199Z,19.83
2022-09-26T16:58:58.875Z,19.39
2022-09-26T17:01:44.663Z,19.62
2022-09-26T17:04:20.015Z,17.50
2022-09-26T17:06:47.719Z,19.47
2022-09-26T17:09:29.828Z,19.35
2022-09-26T17:12:12.272Z,19.01
2022-09-26T17:14:41.334Z,19.01
2022-09-26T17:17:16.262Z,18.93
2022-09-26T17:19:45.360Z,18.85
2022-09-26T17:22:16.611Z,18.94
2022-09-26T17:24:43.604Z,18.54
2022-09-26T17:27:16.557Z,17.32
2022-09-26T17:29:48.944Z,18.81
2022-09-26T17:32:28.536Z,18.81
2022-09-26T17:35:00.935Z,18.45
2022-09-26T17:37:28.424Z,17.57
2022-09-26T17:39:56.001Z,18.28
2022-09-26T17:42:23.379Z,18.48
2022-09-26T17:44:50.573Z,18.05
2022-09-26T17:47:19.273Z,18.35
2022-09-26T17:49:56.157Z,17.52
2022-09-26T17:52:25.888Z,18.45
2022-09-26T17:54:57.494Z,17.45
2022-09-26T17:57:25.676Z,18.46
2022-09-26T17:59:55.106Z,18.07
2022-09-26T18:02:36.530Z,18.32
2022-09-26T18:05:10.762Z,18.14
2022-09-26T18:07:41.033Z,18.23
2022-09-26T18:10:17.166Z,18.13
2022-09-26T18:12:45.256Z,18.06
2022-09-26T18:15:16.232Z,18.13
2022-09-26T18:17:43.590Z,18.12
2022-09-26T18:20:10.280Z,18.03
2022-09-26T18:22:36.966Z,17.97
2022-09-26T18:25:07.911Z,17.98
2022-09-26T18:27:40.650Z,17.97
2022-09-26T18:30:11.750Z,15.84
2022-09-26T18:32:41.731Z,17.77
2022-09-26T18:35:31.369Z,17.91
2022-09-26T18:37:58.783Z,17.25
2022-09-26T18:40:28.573Z,17.90
2022-09-26T18:42:57.841Z,17.92
2022-09-26T18:45:29.671Z,17.85
2022-09-26T18:47:57.097Z,16.87
2022-09-26T18:50:31.739Z,13.42
2022-09-26T18:52:58.414Z,17.69
2022-09-26T18:55:45.053Z,17.38
2022-09-26T18:58:40.421Z,17.70
2022-09-26T19:01:20.355Z,17.59
2022-09-26T19:03:48.581Z,17.33
2022-09-26T19:06:19.973Z,17.61
2022-09-26T19:08:49.780Z,17.65
2022-09-26T19:11:22.516Z,16.69
2022-09-26T19:13:55.102Z,17.64
2022-09-26T19:16:23.264Z,17.50
2022-09-26T19:18:50.500Z,17.64
2022-09-26T19:21:28.555Z,17.15
2022-09-26T19:23:55.640Z,16.72
2022-09-26T19:26:27.738Z,17.24
2022-09-26T19:28:56.788Z,17.55
2022-09-26T19:31:23.699Z,17.07
2022-09-26T19:33:50.789Z,17.17
2022-09-26T19:36:19.492Z,17.48
2022-09-26T19:38:46.192Z,17.47
2022-09-26T19:41:13.193Z,17.56
2022-09-26T19:43:39.910Z,17.67
2022-09-26T19:46:13.345Z,17.69
2022-09-26T19:48:42.281Z,17.71
2022-09-26T19:51:13.046Z,17.32
2022-09-26T19:53:39.763Z,16.99
2022-09-26T19:56:07.052Z,16.36
2022-09-26T19:58:33.933Z,17.34
2022-09-26T20:01:06.904Z,17.53
2022-09-26T20:03:39.924Z,17.07
2022-09-26T20:06:26.400Z,17.69
2022-09-26T20:09:00.449Z,17.68
2022-09-26T20:11:28.177Z,17.69
2022-09-26T20:14:13.211Z,17.40
2022-09-26T20:16:42.307Z,17.61
2022-09-26T20:19:16.101Z,17.62
2022-09-26T20:21:43.006Z,17.01
2022-09-26T20:24:16.470Z,17.21
2022-09-26T20:26:43.409Z,17.40
2022-09-26T20:29:14.982Z,17.40
2022-09-26T20:31:44.392Z,17.00
2022-09-26T20:34:11.625Z,17.38
2022-09-26T20:36:42.408Z,17.19
2022-09-26T20:39:17.512Z,15.36
2022-09-26T20:41:44.353Z,17.16
2022-09-26T20:44:15.974Z,16.69
2022-09-26T20:46:56.272Z,17.09
2022-09-26T20:49:30.054Z,17.10
2022-09-26T20:51:58.347Z,17.14
2022-09-26T20:54:30.635Z,16.43
2022-09-26T20:56:58.685Z,17.10
2022-09-26T20:59:26.322Z,16.67
2022-09-26T21:01:54.588Z,16.97
2022-09-26T21:04:29.806Z,16.16
2022-09-26T21:06:56.665Z,16.85
2022-09-26T21:09:23.266Z,16.86
2022-09-26T21:11:50.010Z,16.85
2022-09-26T21:14:18.171Z,16.80
2022-09-26T21:16:51.890Z,16.83
2022-09-26T21:19:23.841Z,16.80
2022-09-26T21:21:52.094Z,16.72
2022-09-26T21:24:25.460Z,16.18
2022-09-26T21:26:52.106Z,16.63
2022-09-26T21:29:18.743Z,16.40
2022-09-26T21:31:49.159Z,16.47
2022-09-26T21:34:27.767Z,15.94
2022-09-26T21:36:56.987Z,16.33
2022-09-26T21:39:25.625Z,16.17
2022-09-26T21:41:55.952Z,15.94
2022-09-26T21:44:34.086Z,16.01
2022-09-26T21:47:00.710Z,16.10
2022-09-26T21:49:27.377Z,15.70
2022-09-26T21:52:02.589Z,16.00
2022-09-26T21:54:36.484Z,15.62
2022-09-26T21:57:10.019Z,15.87
2022-09-26T21:59:37.367Z,15.76
2022-09-26T22:02:04.292Z,15.62
2022-09-26T22:04:30.975Z,15.33
2022-09-26T22:06:57.660Z,15.61
2022-09-26T22:09:24.314Z,15.53
2022-09-26T22:11:50.947Z,15.49
2022-09-26T22:14:17.606Z,15.37
2022-09-26T22:16:44.346Z,14.01
2022-09-26T22:19:11.103Z,14.75
2022-09-26T22:21:37.758Z,13.68
2022-09-26T22:24:04.421Z,15.38
2022-09-26T22:26:31.044Z,15.38
2022-09-26T22:28:57.635Z,15.45
2022-09-26T22:31:24.321Z,14.69
2022-09-26T22:33:50.940Z,15.41
2022-09-26T22:36:17.657Z,15.39
2022-09-26T22:38:45.161Z,15.33
2022-09-26T22:41:11.779Z,15.36
2022-09-26T22:43:38.412Z,15.48
2022-09-26T22:46:08.110Z,15.51
2022-09-26T22:48:43.324Z,15.30
2022-09-26T22:51:10.154Z,15.45
2022-09-26T22:53:38.135Z,15.58
2022-09-26T22:56:05.854Z,15.62
2022-09-26T22:58:41.582Z,14.62
2022-09-26T23:01:11.601Z,15.43
2022-09-26T23:03:38.793Z,15.42
2022-09-26T23:06:05.942Z,14.79
2022-09-26T23:08:36.175Z,15.25
2022-09-26T23:11:04.140Z,15.37
2022-09-26T23:13:32.651Z,15.42
2022-09-26T23:16:13.940Z,15.45
2022-09-26T23:18:41.704Z,15.45
2022-09-26T23:21:09.338Z,15.51
2022-09-26T23:23:36.837Z,15.56
2022-09-26T23:26:05.815Z,15.54
2022-09-26T23:28:33.812Z,14.87
2022-09-26T23:31:05.939Z,15.41
2022-09-26T23:33:33.147Z,15.59
2022-09-26T23:36:00.692Z,15.30
2022-09-26T23:38:27.847Z,14.20
2022-09-26T23:40:55.001Z,15.58
2022-09-26T23:43:22.094Z,15.64
2022-09-26T23:45:49.606Z,15.71
2022-09-26T23:48:16.474Z,15.78
2022-09-26T23:50:44.680Z,15.76
2022-09-26T23:53:11.672Z,15.67
2022-09-26T23:55:38.256Z,15.55
2022-09-26T23:58:04.979Z,15.63
